sensor_id;sensor_type;location;lat;lon;timestamp;temperature;humidity
77700;DHT22;66867;42.658;23.320;2023-01-26T00:00:00;2.6;79
77700;DHT22;66867;42.658;23.320;2023-01-26T00:01:00;2.6;80
77700;DHT22;66867;42.658;23.320;2023-01-26T00:02:00;2.7;79
77700;DHT22;66867;42.658;23.320;2023-01-26T00:03:00;2.7;79
77700;DHT22;66867;42.658;23.320;2023-01-26T00:04:00;2.7;79
77700;DHT22;66867;42.658;23.320;2023-01-26T00:05:00;2.7;79
77700;DHT22;66867;42.658;23.320;2023-01-26T00:06:02;2.7;79
77700;DHT22;66867;42.658;23.320;2023-01-26T00:07:00;2.6;79
77700;DHT22;66867;42.658;23.320;2023-01-26T00:08:00;2.7;79
77700;DHT22;66867;42.658;23.320;2023-01-26T00:09:00;2.7;79
77700;DHT22;66867;42.658;23.320;2023-01-26T00:10:00;2.6;79
77700;DHT22;66867;42.658;23.320;2023-01-26T00:11:02;2.5;79
77700;DHT22;66867;42.658;23.320;2023-01-26T00:12:00;2.6;79
77700;DHT22;66867;42.658;23.320;2023-01-26T00:13:00;2.6;79
77700;DHT22;66867;42.658;23.320;2023-01-26T00:14:00;2.5;79
77700;DHT22;66867;42.658;23.320;2023-01-26T00:15:00;2.5;79
77700;DHT22;66867;42.658;23.320;2023-01-26T00:16:00;2.5;79
77700;DHT22;66867;42.658;23.320;2023-01-26T00:17:00;2.5;79
77700;DHT22;66867;42.658;23.320;2023-01-26T00:18:00;2.6;79
77700;DHT22;66867;42.658;23.320;2023-01-26T00:19:00;2.6;79
77700;DHT22;66867;42.658;23.320;2023-01-26T00:20:00;2.6;79
77700;DHT22;66867;42.658;23.320;2023-01-26T00:21:00;2.5;79
77700;DHT22;66867;42.658;23.320;2023-01-26T00:22:00;2.5;79
77700;DHT22;66867;42.658;23.320;2023-01-26T00:23:00;2.5;79
77700;DHT22;66867;42.658;23.320;2023-01-26T00:24:00;2.4;79
77700;DHT22;66867;42.658;23.320;2023-01-26T00:25:00;2.4;79
77700;DHT22;66867;42.658;23.320;2023-01-26T00:26:00;2.4;79
77700;DHT22;66867;42.658;23.320;2023-01-26T00:27:00;2.4;79
77700;DHT22;66867;42.658;23.320;2023-01-26T00:28:00;2.4;79
77700;DHT22;66867;42.658;23.320;2023-01-26T00:29:00;2.4;79
77700;DHT22;66867;42.658;23.320;2023-01-26T00:30:00;2.4;79
77700;DHT22;66867;42.658;23.320;2023-01-26T00:31:04;2.4;79
77700;DHT22;66867;42.658;23.320;2023-01-26T00:32:00;2.3;80
77700;DHT22;66867;42.658;23.320;2023-01-26T00:33:00;2.3;80
77700;DHT22;66867;42.658;23.320;2023-01-26T00:34:00;2.3;80
77700;DHT22;66867;42.658;23.320;2023-01-26T00:35:00;2.3;80
77700;DHT22;66867;42.658;23.320;2023-01-26T00:36:00;2.3;80
77700;DHT22;66867;42.658;23.320;2023-01-26T00:37:00;2.3;79
77700;DHT22;66867;42.658;23.320;2023-01-26T00:38:00;2.3;80
77700;DHT22;66867;42.658;23.320;2023-01-26T00:39:00;2.3;80
77700;DHT22;66867;42.658;23.320;2023-01-26T00:40:00;2.4;79
77700;DHT22;66867;42.658;23.320;2023-01-26T00:41:00;2.4;79
77700;DHT22;66867;42.658;23.320;2023-01-26T00:42:00;2.3;80
77700;DHT22;66867;42.658;23.320;2023-01-26T00:43:00;2.4;80
77700;DHT22;66867;42.658;23.320;2023-01-26T00:44:00;2.4;80
77700;DHT22;66867;42.658;23.320;2023-01-26T00:45:00;2.4;79
77700;DHT22;66867;42.658;23.320;2023-01-26T00:46:00;2.4;79
77700;DHT22;66867;42.658;23.320;2023-01-26T00:47:00;2.4;79
77700;DHT22;66867;42.658;23.320;2023-01-26T00:48:00;2.4;79
77700;DHT22;66867;42.658;23.320;2023-01-26T00:49:00;2.4;79
77700;DHT22;66867;42.658;23.320;2023-01-26T00:50:00;2.4;79
77700;DHT22;66867;42.658;23.320;2023-01-26T00:51:00;2.3;79
77700;DHT22;66867;42.658;23.320;2023-01-26T00:52:01;2.3;79
77700;DHT22;66867;42.658;23.320;2023-01-26T00:53:00;2.3;79
77700;DHT22;66867;42.658;23.320;2023-01-26T00:54:00;2.3;80
77700;DHT22;66867;42.658;23.320;2023-01-26T00:55:00;2.2;80
77700;DHT22;66867;42.658;23.320;2023-01-26T00:56:00;2.2;80
77700;DHT22;66867;42.658;23.320;2023-01-26T00:57:00;2.2;80
77700;DHT22;66867;42.658;23.320;2023-01-26T00:58:00;2.2;80
77700;DHT22;66867;42.658;23.320;2023-01-26T00:59:00;2.2;80
77700;DHT22;66867;42.658;23.320;2023-01-26T01:00:00;2.2;80
77700;DHT22;66867;42.658;23.320;2023-01-26T01:01:00;2.2;80
77700;DHT22;66867;42.658;23.320;2023-01-26T01:02:00;2.2;80
77700;DHT22;66867;42.658;23.320;2023-01-26T01:03:00;2.3;79
77700;DHT22;66867;42.658;23.320;2023-01-26T01:04:00;2.2;80
77700;DHT22;66867;42.658;23.320;2023-01-26T01:05:00;2.2;80
77700;DHT22;66867;42.658;23.320;2023-01-26T01:06:00;2.3;79
77700;DHT22;66867;42.658;23.320;2023-01-26T01:07:00;2.3;79
77700;DHT22;66867;42.658;23.320;2023-01-26T01:08:00;2.1;80
77700;DHT22;66867;42.658;23.320;2023-01-26T01:09:00;2.1;80
77700;DHT22;66867;42.658;23.320;2023-01-26T01:10:00;2.2;79
77700;DHT22;66867;42.658;23.320;2023-01-26T01:11:02;2.1;80
77700;DHT22;66867;42.658;23.320;2023-01-26T01:12:00;2.1;80
77700;DHT22;66867;42.658;23.320;2023-01-26T01:13:00;2.2;79
77700;DHT22;66867;42.658;23.320;2023-01-26T01:14:00;2.3;79
77700;DHT22;66867;42.658;23.320;2023-01-26T01:15:00;2.3;79
77700;DHT22;66867;42.658;23.320;2023-01-26T01:16:03;2.2;79
77700;DHT22;66867;42.658;23.320;2023-01-26T01:17:00;2.3;79
77700;DHT22;66867;42.658;23.320;2023-01-26T01:18:00;2.3;78
77700;DHT22;66867;42.658;23.320;2023-01-26T01:19:00;2.2;79
77700;DHT22;66867;42.658;23.320;2023-01-26T01:20:00;2.3;79
77700;DHT22;66867;42.658;23.320;2023-01-26T01:21:04;2.2;79
77700;DHT22;66867;42.658;23.320;2023-01-26T01:22:00;2.3;79
77700;DHT22;66867;42.658;23.320;2023-01-26T01:23:00;2.3;78
77700;DHT22;66867;42.658;23.320;2023-01-26T01:24:00;2.3;78
77700;DHT22;66867;42.658;23.320;2023-01-26T01:25:00;2.3;78
77700;DHT22;66867;42.658;23.320;2023-01-26T01:26:00;2.3;78
77700;DHT22;66867;42.658;23.320;2023-01-26T01:27:00;2.4;78
77700;DHT22;66867;42.658;23.320;2023-01-26T01:28:00;2.4;78
77700;DHT22;66867;42.658;23.320;2023-01-26T01:29:00;2.4;78
77700;DHT22;66867;42.658;23.320;2023-01-26T01:30:00;2.4;78
77700;DHT22;66867;42.658;23.320;2023-01-26T01:31:04;2.4;78
77700;DHT22;66867;42.658;23.320;2023-01-26T01:32:00;2.4;78
77700;DHT22;66867;42.658;23.320;2023-01-26T01:33:00;2.3;78
77700;DHT22;66867;42.658;23.320;2023-01-26T01:34:00;2.3;78
77700;DHT22;66867;42.658;23.320;2023-01-26T01:35:00;2.3;78
77700;DHT22;66867;42.658;23.320;2023-01-26T01:36:01;2.3;78
77700;DHT22;66867;42.658;23.320;2023-01-26T01:37:00;2.3;78
77700;DHT22;66867;42.658;23.320;2023-01-26T01:38:00;2.3;78
77700;DHT22;66867;42.658;23.320;2023-01-26T01:39:00;2.3;78
77700;DHT22;66867;42.658;23.320;2023-01-26T01:40:00;2.3;78
77700;DHT22;66867;42.658;23.320;2023-01-26T01:41:00;2.3;78
77700;DHT22;66867;42.658;23.320;2023-01-26T01:42:00;2.4;78
77700;DHT22;66867;42.658;23.320;2023-01-26T01:43:00;2.4;77
77700;DHT22;66867;42.658;23.320;2023-01-26T01:44:17;2.4;78
77700;DHT22;66867;42.658;23.320;2023-01-26T01:46:00;2.4;78
77700;DHT22;66867;42.658;23.320;2023-01-26T01:47:02;2.4;77
77700;DHT22;66867;42.658;23.320;2023-01-26T01:48:01;2.4;77
77700;DHT22;66867;42.658;23.320;2023-01-26T01:49:02;2.4;77
77700;DHT22;66867;42.658;23.320;2023-01-26T01:50:00;2.5;77
77700;DHT22;66867;42.658;23.320;2023-01-26T01:51:02;2.4;77
77700;DHT22;66867;42.658;23.320;2023-01-26T01:53:00;2.5;77
77700;DHT22;66867;42.658;23.320;2023-01-26T01:54:01;2.4;77
77700;DHT22;66867;42.658;23.320;2023-01-26T01:55:02;2.4;77
77700;DHT22;66867;42.658;23.320;2023-01-26T01:56:01;2.4;77
77700;DHT22;66867;42.658;23.320;2023-01-26T01:57:01;2.5;77
77700;DHT22;66867;42.658;23.320;2023-01-26T01:58:00;2.5;77
77700;DHT22;66867;42.658;23.320;2023-01-26T01:59:00;2.4;76
77700;DHT22;66867;42.658;23.320;2023-01-26T02:00:04;2.4;77
77700;DHT22;66867;42.658;23.320;2023-01-26T02:01:00;2.4;77
77700;DHT22;66867;42.658;23.320;2023-01-26T02:02:00;2.4;77
77700;DHT22;66867;42.658;23.320;2023-01-26T02:03:04;2.4;76
77700;DHT22;66867;42.658;23.320;2023-01-26T02:04:00;2.3;77
77700;DHT22;66867;42.658;23.320;2023-01-26T02:05:02;2.3;76
77700;DHT22;66867;42.658;23.320;2023-01-26T02:06:10;2.3;77
77700;DHT22;66867;42.658;23.320;2023-01-26T02:07:00;2.3;77
77700;DHT22;66867;42.658;23.320;2023-01-26T02:08:00;2.3;77
77700;DHT22;66867;42.658;23.320;2023-01-26T02:09:00;2.3;77
77700;DHT22;66867;42.658;23.320;2023-01-26T02:10:00;2.3;77
77700;DHT22;66867;42.658;23.320;2023-01-26T02:11:02;2.4;77
77700;DHT22;66867;42.658;23.320;2023-01-26T02:12:01;2.4;77
77700;DHT22;66867;42.658;23.320;2023-01-26T02:13:00;2.4;76
77700;DHT22;66867;42.658;23.320;2023-01-26T02:14:02;2.4;76
77700;DHT22;66867;42.658;23.320;2023-01-26T02:15:00;2.4;77
77700;DHT22;66867;42.658;23.320;2023-01-26T02:16:00;2.3;77
77700;DHT22;66867;42.658;23.320;2023-01-26T02:17:00;2.3;77
77700;DHT22;66867;42.658;23.320;2023-01-26T02:18:01;2.2;77
77700;DHT22;66867;42.658;23.320;2023-01-26T02:19:00;2.0;78
77700;DHT22;66867;42.658;23.320;2023-01-26T02:20:44;2.1;78
77700;DHT22;66867;42.658;23.320;2023-01-26T02:21:01;2.0;78
77700;DHT22;66867;42.658;23.320;2023-01-26T02:22:01;2.1;78
77700;DHT22;66867;42.658;23.320;2023-01-26T02:23:03;2.1;78
77700;DHT22;66867;42.658;23.320;2023-01-26T02:24:04;2.1;78
77700;DHT22;66867;42.658;23.320;2023-01-26T02:25:01;2.1;78
77700;DHT22;66867;42.658;23.320;2023-01-26T02:27:00;2.2;78
77700;DHT22;66867;42.658;23.320;2023-01-26T02:28:00;2.2;78
77700;DHT22;66867;42.658;23.320;2023-01-26T02:29:00;2.2;78
77700;DHT22;66867;42.658;23.320;2023-01-26T02:30:00;2.2;78
77700;DHT22;66867;42.658;23.320;2023-01-26T02:31:00;2.3;78
77700;DHT22;66867;42.658;23.320;2023-01-26T02:32:00;2.3;77
77700;DHT22;66867;42.658;23.320;2023-01-26T02:33:00;2.3;77
77700;DHT22;66867;42.658;23.320;2023-01-26T02:34:00;2.3;77
77700;DHT22;66867;42.658;23.320;2023-01-26T02:35:00;2.3;77
77700;DHT22;66867;42.658;23.320;2023-01-26T02:36:00;2.3;77
77700;DHT22;66867;42.658;23.320;2023-01-26T02:37:00;2.3;77
77700;DHT22;66867;42.658;23.320;2023-01-26T02:38:00;2.2;77
77700;DHT22;66867;42.658;23.320;2023-01-26T02:40:01;2.3;77
77700;DHT22;66867;42.658;23.320;2023-01-26T02:41:01;2.3;77
77700;DHT22;66867;42.658;23.320;2023-01-26T02:42:00;2.3;77
77700;DHT22;66867;42.658;23.320;2023-01-26T02:43:00;2.4;77
77700;DHT22;66867;42.658;23.320;2023-01-26T02:44:01;2.4;77
77700;DHT22;66867;42.658;23.320;2023-01-26T02:45:00;2.3;77
77700;DHT22;66867;42.658;23.320;2023-01-26T02:46:00;2.3;77
77700;DHT22;66867;42.658;23.320;2023-01-26T02:47:00;2.3;77
77700;DHT22;66867;42.658;23.320;2023-01-26T02:48:00;2.4;77
77700;DHT22;66867;42.658;23.320;2023-01-26T02:49:00;2.3;77
77700;DHT22;66867;42.658;23.320;2023-01-26T02:50:00;2.2;77
77700;DHT22;66867;42.658;23.320;2023-01-26T02:51:00;2.2;78
77700;DHT22;66867;42.658;23.320;2023-01-26T02:52:00;2.2;77
77700;DHT22;66867;42.658;23.320;2023-01-26T02:53:02;2.2;77
77700;DHT22;66867;42.658;23.320;2023-01-26T02:54:00;2.1;78
77700;DHT22;66867;42.658;23.320;2023-01-26T02:55:00;2.0;78
77700;DHT22;66867;42.658;23.320;2023-01-26T02:56:00;2.1;78
77700;DHT22;66867;42.658;23.320;2023-01-26T02:57:00;2.1;78
77700;DHT22;66867;42.658;23.320;2023-01-26T02:58:01;2.1;78
77700;DHT22;66867;42.658;23.320;2023-01-26T02:59:00;2.1;78
77700;DHT22;66867;42.658;23.320;2023-01-26T03:00:00;2.0;78
77700;DHT22;66867;42.658;23.320;2023-01-26T03:01:00;2.0;78
77700;DHT22;66867;42.658;23.320;2023-01-26T03:02:00;2.1;78
77700;DHT22;66867;42.658;23.320;2023-01-26T03:03:00;2.1;78
77700;DHT22;66867;42.658;23.320;2023-01-26T03:04:00;2.1;78
77700;DHT22;66867;42.658;23.320;2023-01-26T03:05:00;2.1;78
77700;DHT22;66867;42.658;23.320;2023-01-26T03:06:00;2.1;78
77700;DHT22;66867;42.658;23.320;2023-01-26T03:07:00;2.1;78
77700;DHT22;66867;42.658;23.320;2023-01-26T03:08:00;2.1;78
77700;DHT22;66867;42.658;23.320;2023-01-26T03:09:00;2.2;78
77700;DHT22;66867;42.658;23.320;2023-01-26T03:10:00;2.2;78
77700;DHT22;66867;42.658;23.320;2023-01-26T03:11:00;2.2;77
77700;DHT22;66867;42.658;23.320;2023-01-26T03:12:00;2.1;78
77700;DHT22;66867;42.658;23.320;2023-01-26T03:13:00;2.2;78
77700;DHT22;66867;42.658;23.320;2023-01-26T03:14:00;2.1;78
77700;DHT22;66867;42.658;23.320;2023-01-26T03:15:00;2.2;78
77700;DHT22;66867;42.658;23.320;2023-01-26T03:16:00;2.1;78
77700;DHT22;66867;42.658;23.320;2023-01-26T03:17:00;2.1;78
77700;DHT22;66867;42.658;23.320;2023-01-26T03:18:01;2.1;78
77700;DHT22;66867;42.658;23.320;2023-01-26T03:19:00;2.1;78
77700;DHT22;66867;42.658;23.320;2023-01-26T03:20:00;2.1;78
77700;DHT22;66867;42.658;23.320;2023-01-26T03:21:00;2.1;78
77700;DHT22;66867;42.658;23.320;2023-01-26T03:22:00;2.1;78
77700;DHT22;66867;42.658;23.320;2023-01-26T03:23:00;2.1;78
77700;DHT22;66867;42.658;23.320;2023-01-26T03:24:00;2.2;78
77700;DHT22;66867;42.658;23.320;2023-01-26T03:25:00;2.2;78
77700;DHT22;66867;42.658;23.320;2023-01-26T03:26:00;2.2;78
77700;DHT22;66867;42.658;23.320;2023-01-26T03:27:00;2.1;78
77700;DHT22;66867;42.658;23.320;2023-01-26T03:28:00;2.1;78
77700;DHT22;66867;42.658;23.320;2023-01-26T03:29:00;2.2;78
77700;DHT22;66867;42.658;23.320;2023-01-26T03:30:00;2.2;78
77700;DHT22;66867;42.658;23.320;2023-01-26T03:31:00;2.2;78
77700;DHT22;66867;42.658;23.320;2023-01-26T03:32:00;2.1;78
77700;DHT22;66867;42.658;23.320;2023-01-26T03:33:00;2.2;78
77700;DHT22;66867;42.658;23.320;2023-01-26T03:34:00;2.2;77
77700;DHT22;66867;42.658;23.320;2023-01-26T03:35:00;2.2;78
77700;DHT22;66867;42.658;23.320;2023-01-26T03:36:00;2.2;77
77700;DHT22;66867;42.658;23.320;2023-01-26T03:37:00;2.3;77
77700;DHT22;66867;42.658;23.320;2023-01-26T03:38:00;2.3;77
77700;DHT22;66867;42.658;23.320;2023-01-26T03:39:00;2.3;77
77700;DHT22;66867;42.658;23.320;2023-01-26T03:40:00;2.3;77
77700;DHT22;66867;42.658;23.320;2023-01-26T03:41:00;2.3;77
77700;DHT22;66867;42.658;23.320;2023-01-26T03:42:00;2.3;77
77700;DHT22;66867;42.658;23.320;2023-01-26T03:43:05;2.3;77
77700;DHT22;66867;42.658;23.320;2023-01-26T03:44:00;2.3;77
77700;DHT22;66867;42.658;23.320;2023-01-26T03:45:00;2.3;77
77700;DHT22;66867;42.658;23.320;2023-01-26T03:46:02;2.2;77
77700;DHT22;66867;42.658;23.320;2023-01-26T03:47:00;2.2;77
77700;DHT22;66867;42.658;23.320;2023-01-26T03:48:08;2.1;77
77700;DHT22;66867;42.658;23.320;2023-01-26T03:49:00;2.2;77
77700;DHT22;66867;42.658;23.320;2023-01-26T03:50:00;2.2;77
77700;DHT22;66867;42.658;23.320;2023-01-26T03:51:00;2.1;77
77700;DHT22;66867;42.658;23.320;2023-01-26T03:52:00;2.2;77
77700;DHT22;66867;42.658;23.320;2023-01-26T03:53:00;2.2;77
77700;DHT22;66867;42.658;23.320;2023-01-26T03:54:00;2.2;77
77700;DHT22;66867;42.658;23.320;2023-01-26T03:55:00;2.2;77
77700;DHT22;66867;42.658;23.320;2023-01-26T03:56:00;2.2;77
77700;DHT22;66867;42.658;23.320;2023-01-26T03:57:00;2.2;77
77700;DHT22;66867;42.658;23.320;2023-01-26T03:58:00;2.2;77
77700;DHT22;66867;42.658;23.320;2023-01-26T03:59:01;2.2;77
77700;DHT22;66867;42.658;23.320;2023-01-26T04:00:00;2.2;77
77700;DHT22;66867;42.658;23.320;2023-01-26T04:01:00;2.2;77
77700;DHT22;66867;42.658;23.320;2023-01-26T04:02:00;2.2;77
77700;DHT22;66867;42.658;23.320;2023-01-26T04:03:00;2.3;77
77700;DHT22;66867;42.658;23.320;2023-01-26T04:04:00;2.2;77
77700;DHT22;66867;42.658;23.320;2023-01-26T04:05:00;2.2;77
77700;DHT22;66867;42.658;23.320;2023-01-26T04:06:00;2.2;77
77700;DHT22;66867;42.658;23.320;2023-01-26T04:07:00;2.1;77
77700;DHT22;66867;42.658;23.320;2023-01-26T04:08:01;2.2;77
77700;DHT22;66867;42.658;23.320;2023-01-26T04:09:00;2.3;77
77700;DHT22;66867;42.658;23.320;2023-01-26T04:10:00;2.3;77
77700;DHT22;66867;42.658;23.320;2023-01-26T04:11:00;2.3;77
77700;DHT22;66867;42.658;23.320;2023-01-26T04:12:00;2.3;77
77700;DHT22;66867;42.658;23.320;2023-01-26T04:13:00;2.3;77
77700;DHT22;66867;42.658;23.320;2023-01-26T04:14:00;2.3;77
77700;DHT22;66867;42.658;23.320;2023-01-26T04:15:00;2.3;77
77700;DHT22;66867;42.658;23.320;2023-01-26T04:16:00;2.3;77
77700;DHT22;66867;42.658;23.320;2023-01-26T04:17:00;2.3;77
77700;DHT22;66867;42.658;23.320;2023-01-26T04:18:04;2.3;77
77700;DHT22;66867;42.658;23.320;2023-01-26T04:19:00;2.4;77
77700;DHT22;66867;42.658;23.320;2023-01-26T04:20:00;2.4;77
77700;DHT22;66867;42.658;23.320;2023-01-26T04:21:02;2.4;77
77700;DHT22;66867;42.658;23.320;2023-01-26T04:22:00;2.4;77
77700;DHT22;66867;42.658;23.320;2023-01-26T04:23:00;2.3;77
77700;DHT22;66867;42.658;23.320;2023-01-26T04:24:01;2.3;77
77700;DHT22;66867;42.658;23.320;2023-01-26T04:25:00;2.3;77
77700;DHT22;66867;42.658;23.320;2023-01-26T04:26:00;2.3;77
77700;DHT22;66867;42.658;23.320;2023-01-26T04:27:00;2.2;78
77700;DHT22;66867;42.658;23.320;2023-01-26T04:28:00;2.3;77
77700;DHT22;66867;42.658;23.320;2023-01-26T04:29:01;2.2;77
77700;DHT22;66867;42.658;23.320;2023-01-26T04:30:01;2.3;78
77700;DHT22;66867;42.658;23.320;2023-01-26T04:31:00;2.3;77
77700;DHT22;66867;42.658;23.320;2023-01-26T04:32:00;2.3;77
77700;DHT22;66867;42.658;23.320;2023-01-26T04:33:00;2.2;77
77700;DHT22;66867;42.658;23.320;2023-01-26T04:34:00;2.2;77
77700;DHT22;66867;42.658;23.320;2023-01-26T04:35:00;2.2;77
77700;DHT22;66867;42.658;23.320;2023-01-26T04:36:02;2.2;77
77700;DHT22;66867;42.658;23.320;2023-01-26T04:37:00;2.2;78
77700;DHT22;66867;42.658;23.320;2023-01-26T04:38:00;2.2;77
77700;DHT22;66867;42.658;23.320;2023-01-26T04:39:00;2.1;77
77700;DHT22;66867;42.658;23.320;2023-01-26T04:40:00;2.1;77
77700;DHT22;66867;42.658;23.320;2023-01-26T04:41:00;2.1;78
77700;DHT22;66867;42.658;23.320;2023-01-26T04:42:00;2.1;77
77700;DHT22;66867;42.658;23.320;2023-01-26T04:43:00;2.2;77
77700;DHT22;66867;42.658;23.320;2023-01-26T04:44:00;2.2;77
77700;DHT22;66867;42.658;23.320;2023-01-26T04:45:00;2.2;77
77700;DHT22;66867;42.658;23.320;2023-01-26T04:46:01;2.1;77
77700;DHT22;66867;42.658;23.320;2023-01-26T04:47:00;2.1;77
77700;DHT22;66867;42.658;23.320;2023-01-26T04:48:00;2.1;77
77700;DHT22;66867;42.658;23.320;2023-01-26T04:49:00;2.0;77
77700;DHT22;66867;42.658;23.320;2023-01-26T04:50:00;2.0;77
77700;DHT22;66867;42.658;23.320;2023-01-26T04:51:01;2.0;78
77700;DHT22;66867;42.658;23.320;2023-01-26T04:52:00;2.0;78
77700;DHT22;66867;42.658;23.320;2023-01-26T04:53:00;2.0;77
77700;DHT22;66867;42.658;23.320;2023-01-26T04:54:00;2.1;77
77700;DHT22;66867;42.658;23.320;2023-01-26T04:55:00;2.1;78
77700;DHT22;66867;42.658;23.320;2023-01-26T04:56:00;2.1;77
77700;DHT22;66867;42.658;23.320;2023-01-26T04:57:00;2.1;77
77700;DHT22;66867;42.658;23.320;2023-01-26T04:58:00;2.1;78
77700;DHT22;66867;42.658;23.320;2023-01-26T04:59:02;2.1;78
77700;DHT22;66867;42.658;23.320;2023-01-26T05:00:00;2.0;78
77700;DHT22;66867;42.658;23.320;2023-01-26T05:01:00;2.0;78
77700;DHT22;66867;42.658;23.320;2023-01-26T05:02:00;2.1;77
77700;DHT22;66867;42.658;23.320;2023-01-26T05:03:00;2.1;77
77700;DHT22;66867;42.658;23.320;2023-01-26T05:06:00;2.1;78
77700;DHT22;66867;42.658;23.320;2023-01-26T05:07:00;2.1;78
77700;DHT22;66867;42.658;23.320;2023-01-26T05:08:00;2.2;78
77700;DHT22;66867;42.658;23.320;2023-01-26T05:09:00;2.2;77
77700;DHT22;66867;42.658;23.320;2023-01-26T05:10:00;2.2;77
77700;DHT22;66867;42.658;23.320;2023-01-26T05:11:00;2.1;77
77700;DHT22;66867;42.658;23.320;2023-01-26T05:12:00;2.1;77
77700;DHT22;66867;42.658;23.320;2023-01-26T05:13:00;2.1;77
77700;DHT22;66867;42.658;23.320;2023-01-26T05:14:00;2.1;77
77700;DHT22;66867;42.658;23.320;2023-01-26T05:15:00;2.2;77
77700;DHT22;66867;42.658;23.320;2023-01-26T05:16:01;2.2;77
77700;DHT22;66867;42.658;23.320;2023-01-26T05:17:00;2.2;77
77700;DHT22;66867;42.658;23.320;2023-01-26T05:18:00;2.2;77
77700;DHT22;66867;42.658;23.320;2023-01-26T05:19:00;2.3;77
77700;DHT22;66867;42.658;23.320;2023-01-26T05:20:00;2.3;76
77700;DHT22;66867;42.658;23.320;2023-01-26T05:21:00;2.3;76
77700;DHT22;66867;42.658;23.320;2023-01-26T05:22:00;2.3;76
77700;DHT22;66867;42.658;23.320;2023-01-26T05:23:00;2.2;76
77700;DHT22;66867;42.658;23.320;2023-01-26T05:24:00;2.3;76
77700;DHT22;66867;42.658;23.320;2023-01-26T05:25:00;2.3;77
77700;DHT22;66867;42.658;23.320;2023-01-26T05:26:00;2.3;76
77700;DHT22;66867;42.658;23.320;2023-01-26T05:27:00;2.3;76
77700;DHT22;66867;42.658;23.320;2023-01-26T05:28:00;2.3;76
77700;DHT22;66867;42.658;23.320;2023-01-26T05:29:00;2.3;76
77700;DHT22;66867;42.658;23.320;2023-01-26T05:30:00;2.3;76
77700;DHT22;66867;42.658;23.320;2023-01-26T05:31:00;2.3;76
77700;DHT22;66867;42.658;23.320;2023-01-26T05:32:00;2.3;76
77700;DHT22;66867;42.658;23.320;2023-01-26T05:33:01;2.2;76
77700;DHT22;66867;42.658;23.320;2023-01-26T05:34:00;2.3;76
77700;DHT22;66867;42.658;23.320;2023-01-26T05:36:02;2.3;76
77700;DHT22;66867;42.658;23.320;2023-01-26T05:37:00;2.3;76
77700;DHT22;66867;42.658;23.320;2023-01-26T05:38:00;2.3;76
77700;DHT22;66867;42.658;23.320;2023-01-26T05:39:00;2.3;76
77700;DHT22;66867;42.658;23.320;2023-01-26T05:40:00;2.4;76
77700;DHT22;66867;42.658;23.320;2023-01-26T05:41:00;2.3;76
77700;DHT22;66867;42.658;23.320;2023-01-26T05:42:00;2.3;76
77700;DHT22;66867;42.658;23.320;2023-01-26T05:43:00;2.4;76
77700;DHT22;66867;42.658;23.320;2023-01-26T05:44:00;2.4;76
77700;DHT22;66867;42.658;23.320;2023-01-26T05:45:00;2.4;76
77700;DHT22;66867;42.658;23.320;2023-01-26T05:46:00;2.4;76
77700;DHT22;66867;42.658;23.320;2023-01-26T05:47:00;2.4;76
77700;DHT22;66867;42.658;23.320;2023-01-26T05:48:00;2.4;76
77700;DHT22;66867;42.658;23.320;2023-01-26T05:49:00;2.4;76
77700;DHT22;66867;42.658;23.320;2023-01-26T05:50:00;2.5;76
77700;DHT22;66867;42.658;23.320;2023-01-26T05:51:00;2.5;76
77700;DHT22;66867;42.658;23.320;2023-01-26T05:52:00;2.5;76
77700;DHT22;66867;42.658;23.320;2023-01-26T05:53:00;2.5;76
77700;DHT22;66867;42.658;23.320;2023-01-26T05:54:00;2.5;76
77700;DHT22;66867;42.658;23.320;2023-01-26T05:55:00;2.5;76
77700;DHT22;66867;42.658;23.320;2023-01-26T05:56:00;2.5;75
77700;DHT22;66867;42.658;23.320;2023-01-26T05:57:00;2.5;76
77700;DHT22;66867;42.658;23.320;2023-01-26T05:58:00;2.5;75
77700;DHT22;66867;42.658;23.320;2023-01-26T05:59:00;2.5;76
77700;DHT22;66867;42.658;23.320;2023-01-26T06:00:00;2.5;75
77700;DHT22;66867;42.658;23.320;2023-01-26T06:01:02;2.5;75
77700;DHT22;66867;42.658;23.320;2023-01-26T06:02:00;2.5;75
77700;DHT22;66867;42.658;23.320;2023-01-26T06:03:00;2.5;75
77700;DHT22;66867;42.658;23.320;2023-01-26T06:04:00;2.5;75
77700;DHT22;66867;42.658;23.320;2023-01-26T06:05:00;2.5;76
77700;DHT22;66867;42.658;23.320;2023-01-26T06:06:00;2.6;75
77700;DHT22;66867;42.658;23.320;2023-01-26T06:07:00;2.5;75
77700;DHT22;66867;42.658;23.320;2023-01-26T06:08:00;2.6;75
77700;DHT22;66867;42.658;23.320;2023-01-26T06:09:00;2.6;75
77700;DHT22;66867;42.658;23.320;2023-01-26T06:10:00;2.5;75
77700;DHT22;66867;42.658;23.320;2023-01-26T06:12:00;2.5;76
77700;DHT22;66867;42.658;23.320;2023-01-26T06:13:00;2.5;75
77700;DHT22;66867;42.658;23.320;2023-01-26T06:14:00;2.5;75
77700;DHT22;66867;42.658;23.320;2023-01-26T06:15:01;2.5;75
77700;DHT22;66867;42.658;23.320;2023-01-26T06:16:00;2.5;75
77700;DHT22;66867;42.658;23.320;2023-01-26T06:17:00;2.5;75
77700;DHT22;66867;42.658;23.320;2023-01-26T06:18:00;2.5;75
77700;DHT22;66867;42.658;23.320;2023-01-26T06:19:00;2.5;75
77700;DHT22;66867;42.658;23.320;2023-01-26T06:20:00;2.5;75
77700;DHT22;66867;42.658;23.320;2023-01-26T06:21:00;2.5;75
77700;DHT22;66867;42.658;23.320;2023-01-26T06:22:00;2.5;75
77700;DHT22;66867;42.658;23.320;2023-01-26T06:23:00;2.5;75
77700;DHT22;66867;42.658;23.320;2023-01-26T06:24:00;2.5;75
77700;DHT22;66867;42.658;23.320;2023-01-26T06:25:00;2.5;75
77700;DHT22;66867;42.658;23.320;2023-01-26T06:26:00;2.6;75
77700;DHT22;66867;42.658;23.320;2023-01-26T06:27:00;2.6;75
77700;DHT22;66867;42.658;23.320;2023-01-26T06:28:00;2.5;75
77700;DHT22;66867;42.658;23.320;2023-01-26T06:29:00;2.6;75
77700;DHT22;66867;42.658;23.320;2023-01-26T06:30:00;2.6;75
77700;DHT22;66867;42.658;23.320;2023-01-26T06:31:00;2.5;75
77700;DHT22;66867;42.658;23.320;2023-01-26T06:32:00;2.6;75
77700;DHT22;66867;42.658;23.320;2023-01-26T06:33:00;2.6;75
77700;DHT22;66867;42.658;23.320;2023-01-26T06:34:00;2.7;75
77700;DHT22;66867;42.658;23.320;2023-01-26T06:35:00;2.7;75
77700;DHT22;66867;42.658;23.320;2023-01-26T06:36:02;2.7;75
77700;DHT22;66867;42.658;23.320;2023-01-26T06:37:00;2.7;75
77700;DHT22;66867;42.658;23.320;2023-01-26T06:38:00;2.7;75
77700;DHT22;66867;42.658;23.320;2023-01-26T06:39:00;2.7;75
77700;DHT22;66867;42.658;23.320;2023-01-26T06:40:00;2.7;74
77700;DHT22;66867;42.658;23.320;2023-01-26T06:41:00;2.8;74
77700;DHT22;66867;42.658;23.320;2023-01-26T06:42:00;2.7;75
77700;DHT22;66867;42.658;23.320;2023-01-26T06:43:00;2.7;75
77700;DHT22;66867;42.658;23.320;2023-01-26T06:44:00;2.7;75
77700;DHT22;66867;42.658;23.320;2023-01-26T06:45:00;2.7;75
77700;DHT22;66867;42.658;23.320;2023-01-26T06:46:00;2.7;75
77700;DHT22;66867;42.658;23.320;2023-01-26T06:47:00;2.7;75
77700;DHT22;66867;42.658;23.320;2023-01-26T06:48:00;2.6;75
77700;DHT22;66867;42.658;23.320;2023-01-26T06:49:01;2.6;75
77700;DHT22;66867;42.658;23.320;2023-01-26T06:50:00;2.6;75
77700;DHT22;66867;42.658;23.320;2023-01-26T06:51:04;2.5;76
77700;DHT22;66867;42.658;23.320;2023-01-26T06:52:04;2.5;76